sensor_id;sensor_type;location;lat;lon;timestamp;temperature;humidity
43665;DHT22;29263;48.172;11.484;2022-12-07T00:02:25;3.20;99.90
43665;DHT22;29263;48.172;11.484;2022-12-07T00:04:51;3.20;99.90
43665;DHT22;29263;48.172;11.484;2022-12-07T00:07:16;3.20;99.90
43665;DHT22;29263;48.172;11.484;2022-12-07T00:09:42;3.20;99.90
43665;DHT22;29263;48.172;11.484;2022-12-07T00:12:07;3.30;99.90
43665;DHT22;29263;48.172;11.484;2022-12-07T00:14:33;3.20;99.90
43665;DHT22;29263;48.172;11.484;2022-12-07T00:16:59;3.20;99.90
43665;DHT22;29263;48.172;11.484;2022-12-07T00:19:24;3.20;99.90
43665;DHT22;29263;48.172;11.484;2022-12-07T00:21:50;3.20;99.90
43665;DHT22;29263;48.172;11.484;2022-12-07T00:24:16;3.20;99.90
43665;DHT22;29263;48.172;11.484;2022-12-07T00:26:43;3.10;99.90
43665;DHT22;29263;48.172;11.484;2022-12-07T00:29:18;3.10;99.90
43665;DHT22;29263;48.172;11.484;2022-12-07T00:31:44;3.10;99.90
43665;DHT22;29263;48.172;11.484;2022-12-07T00:34:15;3.10;99.90
43665;DHT22;29263;48.172;11.484;2022-12-07T00:36:41;3.10;99.90
43665;DHT22;29263;48.172;11.484;2022-12-07T00:39:07;3.10;99.90
43665;DHT22;29263;48.172;11.484;2022-12-07T00:41:33;3.10;99.90
43665;DHT22;29263;48.172;11.484;2022-12-07T00:43:59;3.10;99.90
43665;DHT22;29263;48.172;11.484;2022-12-07T00:46:25;3.10;99.90
43665;DHT22;29263;48.172;11.484;2022-12-07T00:48:52;3.10;99.90
43665;DHT22;29263;48.172;11.484;2022-12-07T00:51:21;3.10;99.90
43665;DHT22;29263;48.172;11.484;2022-12-07T00:53:47;3.00;99.90
43665;DHT22;29263;48.172;11.484;2022-12-07T00:56:25;3.10;99.90
43665;DHT22;29263;48.172;11.484;2022-12-07T00:58:53;3.10;99.90
43665;DHT22;29263;48.172;11.484;2022-12-07T01:01:19;3.10;99.90
43665;DHT22;29263;48.172;11.484;2022-12-07T01:03:45;3.00;99.90
43665;DHT22;29263;48.172;11.484;2022-12-07T01:06:17;3.00;99.90
43665;DHT22;29263;48.172;11.484;2022-12-07T01:08:43;3.00;99.90
43665;DHT22;29263;48.172;11.484;2022-12-07T01:11:12;3.00;99.90
43665;DHT22;29263;48.172;11.484;2022-12-07T01:13:38;3.10;99.90
43665;DHT22;29263;48.172;11.484;2022-12-07T01:16:05;3.10;99.90
43665;DHT22;29263;48.172;11.484;2022-12-07T01:18:33;3.20;99.90
43665;DHT22;29263;48.172;11.484;2022-12-07T01:21:16;3.20;99.90
43665;DHT22;29263;48.172;11.484;2022-12-07T01:23:43;3.30;99.90
43665;DHT22;29263;48.172;11.484;2022-12-07T01:26:14;3.20;99.90
43665;DHT22;29263;48.172;11.484;2022-12-07T01:28:40;3.20;99.90
43665;DHT22;29263;48.172;11.484;2022-12-07T01:31:08;3.10;99.90
43665;DHT22;29263;48.172;11.484;2022-12-07T01:33:37;3.10;99.90
43665;DHT22;29263;48.172;11.484;2022-12-07T01:36:05;3.10;99.90
43665;DHT22;29263;48.172;11.484;2022-12-07T01:38:32;3.10;99.90
43665;DHT22;29263;48.172;11.484;2022-12-07T01:40:59;3.00;99.90
43665;DHT22;29263;48.172;11.484;2022-12-07T01:43:28;3.10;99.90
43665;DHT22;29263;48.172;11.484;2022-12-07T01:45:55;3.00;99.90
43665;DHT22;29263;48.172;11.484;2022-12-07T01:48:33;3.00;99.90
43665;DHT22;29263;48.172;11.484;2022-12-07T01:51:03;3.00;99.90
43665;DHT22;29263;48.172;11.484;2022-12-07T01:53:29;3.00;99.90
43665;DHT22;29263;48.172;11.484;2022-12-07T01:55:56;3.00;99.90
43665;DHT22;29263;48.172;11.484;2022-12-07T01:58:23;3.00;99.90
43665;DHT22;29263;48.172;11.484;2022-12-07T02:00:49;3.00;99.90
43665;DHT22;29263;48.172;11.484;2022-12-07T02:03:25;3.00;99.90
43665;DHT22;29263;48.172;11.484;2022-12-07T02:05:53;3.00;99.90
43665;DHT22;29263;48.172;11.484;2022-12-07T02:08:20;3.00;99.90
43665;DHT22;29263;48.172;11.484;2022-12-07T02:10:45;3.00;99.90
43665;DHT22;29263;48.172;11.484;2022-12-07T02:13:33;2.90;99.90
43665;DHT22;29263;48.172;11.484;2022-12-07T02:27:52;2.90;99.90
43665;DHT22;29263;48.172;11.484;2022-12-07T02:30:22;2.90;99.90
43665;DHT22;29263;48.172;11.484;2022-12-07T02:32:53;2.90;99.90
43665;DHT22;29263;48.172;11.484;2022-12-07T02:35:42;2.90;99.90
43665;DHT22;29263;48.172;11.484;2022-12-07T02:38:16;2.80;99.90
43665;DHT22;29263;48.172;11.484;2022-12-07T02:40:51;2.80;99.90
43665;DHT22;29263;48.172;11.484;2022-12-07T02:43:25;2.90;99.90
43665;DHT22;29263;48.172;11.484;2022-12-07T02:45:55;2.90;99.90
43665;DHT22;29263;48.172;11.484;2022-12-07T02:48:21;2.90;99.90
43665;DHT22;29263;48.172;11.484;2022-12-07T02:50:49;2.80;99.90
43665;DHT22;29263;48.172;11.484;2022-12-07T02:53:32;2.80;99.90
43665;DHT22;29263;48.172;11.484;2022-12-07T02:56:02;2.80;99.90
43665;DHT22;29263;48.172;11.484;2022-12-07T02:58:48;2.80;99.90
43665;DHT22;29263;48.172;11.484;2022-12-07T03:04:08;2.90;99.90
43665;DHT22;29263;48.172;11.484;2022-12-07T03:06:43;2.80;99.90
43665;DHT22;29263;48.172;11.484;2022-12-07T03:09:21;2.80;99.90
43665;DHT22;29263;48.172;11.484;2022-12-07T03:11:56;2.80;99.90
43665;DHT22;29263;48.172;11.484;2022-12-07T03:14:30;2.90;99.90
43665;DHT22;29263;48.172;11.484;2022-12-07T03:17:05;2.80;99.90
43665;DHT22;29263;48.172;11.484;2022-12-07T03:19:33;2.80;99.90
43665;DHT22;29263;48.172;11.484;2022-12-07T03:22:05;2.80;99.90
43665;DHT22;29263;48.172;11.484;2022-12-07T03:24:43;2.80;99.90
43665;DHT22;29263;48.172;11.484;2022-12-07T03:27:16;2.80;99.90
43665;DHT22;29263;48.172;11.484;2022-12-07T03:29:53;2.80;99.90
43665;DHT22;29263;48.172;11.484;2022-12-07T03:32:27;2.80;99.90
43665;DHT22;29263;48.172;11.484;2022-12-07T03:38:13;2.80;99.90
43665;DHT22;29263;48.172;11.484;2022-12-07T03:43:23;2.80;99.90
43665;DHT22;29263;48.172;11.484;2022-12-07T03:46:17;2.80;99.90
43665;DHT22;29263;48.172;11.484;2022-12-07T03:51:28;2.80;99.90
43665;DHT22;29263;48.172;11.484;2022-12-07T03:54:05;2.80;99.90
43665;DHT22;29263;48.172;11.484;2022-12-07T03:56:33;2.80;99.90
43665;DHT22;29263;48.172;11.484;2022-12-07T03:59:00;2.80;99.90
43665;DHT22;29263;48.172;11.484;2022-12-07T04:01:25;2.90;99.90
43665;DHT22;29263;48.172;11.484;2022-12-07T04:03:52;2.80;99.90
43665;DHT22;29263;48.172;11.484;2022-12-07T04:06:18;2.80;99.90
43665;DHT22;29263;48.172;11.484;2022-12-07T04:08:43;2.90;99.90
43665;DHT22;29263;48.172;11.484;2022-12-07T04:11:09;2.90;99.90
43665;DHT22;29263;48.172;11.484;2022-12-07T04:13:35;2.90;99.90
43665;DHT22;29263;48.172;11.484;2022-12-07T04:16:20;2.80;99.90
43665;DHT22;29263;48.172;11.484;2022-12-07T04:18:46;2.80;99.90
43665;DHT22;29263;48.172;11.484;2022-12-07T04:21:11;2.80;99.90
43665;DHT22;29263;48.172;11.484;2022-12-07T04:23:37;2.80;99.90
43665;DHT22;29263;48.172;11.484;2022-12-07T04:26:02;2.80;99.90
43665;DHT22;29263;48.172;11.484;2022-12-07T04:28:28;2.90;99.90
43665;DHT22;29263;48.172;11.484;2022-12-07T04:30:54;2.90;99.90
43665;DHT22;29263;48.172;11.484;2022-12-07T04:33:19;2.90;99.90
43665;DHT22;29263;48.172;11.484;2022-12-07T04:35:45;2.90;99.90
43665;DHT22;29263;48.172;11.484;2022-12-07T04:38:10;2.80;99.90
43665;DHT22;29263;48.172;11.484;2022-12-07T04:40:36;2.90;99.90
43665;DHT22;29263;48.172;11.484;2022-12-07T04:43:02;2.90;99.90
43665;DHT22;29263;48.172;11.484;2022-12-07T04:45:27;2.90;99.90
43665;DHT22;29263;48.172;11.484;2022-12-07T04:47:53;2.90;99.90
43665;DHT22;29263;48.172;11.484;2022-12-07T04:50:18;2.90;99.90
43665;DHT22;29263;48.172;11.484;2022-12-07T04:52:44;2.90;99.90
43665;DHT22;29263;48.172;11.484;2022-12-07T04:55:09;2.90;99.90
43665;DHT22;29263;48.172;11.484;2022-12-07T04:57:35;2.80;99.90
43665;DHT22;29263;48.172;11.484;2022-12-07T05:00:01;2.80;99.90
43665;DHT22;29263;48.172;11.484;2022-12-07T05:02:26;2.90;99.90
43665;DHT22;29263;48.172;11.484;2022-12-07T05:04:52;2.80;99.90
43665;DHT22;29263;48.172;11.484;2022-12-07T05:07:17;2.80;99.90
43665;DHT22;29263;48.172;11.484;2022-12-07T05:09:43;2.80;99.90
43665;DHT22;29263;48.172;11.484;2022-12-07T05:12:09;2.70;99.90
43665;DHT22;29263;48.172;11.484;2022-12-07T05:14:35;2.70;99.90
43665;DHT22;29263;48.172;11.484;2022-12-07T05:17:00;2.70;99.90
43665;DHT22;29263;48.172;11.484;2022-12-07T05:19:26;2.70;99.90
43665;DHT22;29263;48.172;11.484;2022-12-07T05:21:51;2.70;99.90
43665;DHT22;29263;48.172;11.484;2022-12-07T05:24:17;2.70;99.90
43665;DHT22;29263;48.172;11.484;2022-12-07T05:26:44;2.60;99.90
43665;DHT22;29263;48.172;11.484;2022-12-07T05:29:13;2.60;99.90
43665;DHT22;29263;48.172;11.484;2022-12-07T05:31:39;2.60;99.90
43665;DHT22;29263;48.172;11.484;2022-12-07T05:34:04;2.60;99.90
43665;DHT22;29263;48.172;11.484;2022-12-07T05:36:30;2.60;99.90
43665;DHT22;29263;48.172;11.484;2022-12-07T05:38:57;2.60;99.90
43665;DHT22;29263;48.172;11.484;2022-12-07T05:41:23;2.60;99.90
43665;DHT22;29263;48.172;11.484;2022-12-07T05:44:08;2.60;99.90
43665;DHT22;29263;48.172;11.484;2022-12-07T05:46:34;2.60;99.90
43665;DHT22;29263;48.172;11.484;2022-12-07T05:49:00;2.60;99.90
43665;DHT22;29263;48.172;11.484;2022-12-07T05:51:26;2.60;99.90
43665;DHT22;29263;48.172;11.484;2022-12-07T05:53:51;2.60;99.90
43665;DHT22;29263;48.172;11.484;2022-12-07T05:56:17;2.50;99.90
43665;DHT22;29263;48.172;11.484;2022-12-07T05:58:43;2.60;99.90
43665;DHT22;29263;48.172;11.484;2022-12-07T06:01:27;2.60;99.90
43665;DHT22;29263;48.172;11.484;2022-12-07T06:03:52;2.60;99.90
43665;DHT22;29263;48.172;11.484;2022-12-07T06:06:18;2.70;99.90
43665;DHT22;29263;48.172;11.484;2022-12-07T06:08:44;2.60;99.90
43665;DHT22;29263;48.172;11.484;2022-12-07T06:11:09;2.60;99.90
43665;DHT22;29263;48.172;11.484;2022-12-07T06:13:54;2.60;99.90
43665;DHT22;29263;48.172;11.484;2022-12-07T06:16:19;2.60;99.90
43665;DHT22;29263;48.172;11.484;2022-12-07T06:18:45;2.50;99.90
43665;DHT22;29263;48.172;11.484;2022-12-07T06:21:10;2.60;99.90
43665;DHT22;29263;48.172;11.484;2022-12-07T06:23:36;2.60;99.90
43665;DHT22;29263;48.172;11.484;2022-12-07T06:26:01;2.60;99.90
43665;DHT22;29263;48.172;11.484;2022-12-07T06:28:27;2.60;99.90
43665;DHT22;29263;48.172;11.484;2022-12-07T06:30:59;2.60;99.90
43665;DHT22;29263;48.172;11.484;2022-12-07T06:33:25;2.60;99.90
43665;DHT22;29263;48.172;11.484;2022-12-07T06:35:51;2.50;99.90
43665;DHT22;29263;48.172;11.484;2022-12-07T06:38:16;2.50;99.90
43665;DHT22;29263;48.172;11.484;2022-12-07T06:40:42;2.40;99.90
43665;DHT22;29263;48.172;11.484;2022-12-07T06:43:08;2.40;99.90
43665;DHT22;29263;48.172;11.484;2022-12-07T06:45:33;2.50;99.90
43665;DHT22;29263;48.172;11.484;2022-12-07T06:47:59;2.50;99.90
43665;DHT22;29263;48.172;11.484;2022-12-07T06:50:25;2.50;99.90
43665;DHT22;29263;48.172;11.484;2022-12-07T06:52:52;2.60;99.90
43665;DHT22;29263;48.172;11.484;2022-12-07T06:55:17;2.50;99.90
43665;DHT22;29263;48.172;11.484;2022-12-07T06:57:43;2.50;99.90
43665;DHT22;29263;48.172;11.484;2022-12-07T07:00:09;2.50;99.90
43665;DHT22;29263;48.172;11.484;2022-12-07T07:02:35;2.60;99.90
43665;DHT22;29263;48.172;11.484;2022-12-07T07:05:01;2.50;99.90
43665;DHT22;29263;48.172;11.484;2022-12-07T07:07:26;2.50;99.90
43665;DHT22;29263;48.172;11.484;2022-12-07T07:09:52;2.50;99.90
43665;DHT22;29263;48.172;11.484;2022-12-07T07:12:18;2.50;99.90
43665;DHT22;29263;48.172;11.484;2022-12-07T07:14:43;2.50;99.90
43665;DHT22;29263;48.172;11.484;2022-12-07T07:17:09;2.50;99.90
43665;DHT22;29263;48.172;11.484;2022-12-07T07:19:34;2.50;99.90
43665;DHT22;29263;48.172;11.484;2022-12-07T07:22:00;2.40;99.90
43665;DHT22;29263;48.172;11.484;2022-12-07T07:24:26;2.50;99.90
43665;DHT22;29263;48.172;11.484;2022-12-07T07:26:51;2.50;99.90
43665;DHT22;29263;48.172;11.484;2022-12-07T07:29:17;2.50;99.90
43665;DHT22;29263;48.172;11.484;2022-12-07T07:31:42;2.50;99.90
43665;DHT22;29263;48.172;11.484;2022-12-07T07:34:08;2.50;99.90
43665;DHT22;29263;48.172;11.484;2022-12-07T07:36:34;2.50;99.90
43665;DHT22;29263;48.172;11.484;2022-12-07T07:38:59;2.50;99.90
43665;DHT22;29263;48.172;11.484;2022-12-07T07:41:25;2.50;99.90
43665;DHT22;29263;48.172;11.484;2022-12-07T07:43:50;2.50;99.90
43665;DHT22;29263;48.172;11.484;2022-12-07T07:46:16;2.50;99.90
43665;DHT22;29263;48.172;11.484;2022-12-07T07:48:41;2.60;99.90
43665;DHT22;29263;48.172;11.484;2022-12-07T07:51:07;2.60;99.90
43665;DHT22;29263;48.172;11.484;2022-12-07T07:53:33;2.60;99.90
43665;DHT22;29263;48.172;11.484;2022-12-07T07:55:59;2.70;99.90
43665;DHT22;29263;48.172;11.484;2022-12-07T07:58:25;2.70;99.90
43665;DHT22;29263;48.172;11.484;2022-12-07T08:00:51;2.60;99.90
43665;DHT22;29263;48.172;11.484;2022-12-07T08:03:16;2.60;99.90
43665;DHT22;29263;48.172;11.484;2022-12-07T08:05:42;2.70;99.90
43665;DHT22;29263;48.172;11.484;2022-12-07T08:08:08;2.80;99.90
43665;DHT22;29263;48.172;11.484;2022-12-07T08:10:33;2.80;99.90
43665;DHT22;29263;48.172;11.484;2022-12-07T08:13:01;2.80;99.90
43665;DHT22;29263;48.172;11.484;2022-12-07T08:15:44;2.80;99.90
43665;DHT22;29263;48.172;11.484;2022-12-07T08:18:11;2.80;99.90
43665;DHT22;29263;48.172;11.484;2022-12-07T08:20:37;2.90;99.90
43665;DHT22;29263;48.172;11.484;2022-12-07T08:23:04;2.90;99.90
43665;DHT22;29263;48.172;11.484;2022-12-07T08:25:30;2.90;99.90
43665;DHT22;29263;48.172;11.484;2022-12-07T08:27:55;3.00;99.90
43665;DHT22;29263;48.172;11.484;2022-12-07T08:30:21;3.00;99.90
43665;DHT22;29263;48.172;11.484;2022-12-07T08:32:47;3.00;99.90
43665;DHT22;29263;48.172;11.484;2022-12-07T08:35:14;3.00;99.90
43665;DHT22;29263;48.172;11.484;2022-12-07T08:37:40;3.10;99.90
43665;DHT22;29263;48.172;11.484;2022-12-07T08:40:07;3.10;99.90
43665;DHT22;29263;48.172;11.484;2022-12-07T08:42:33;3.10;99.90
43665;DHT22;29263;48.172;11.484;2022-12-07T08:45:11;3.20;99.90
43665;DHT22;29263;48.172;11.484;2022-12-07T08:47:42;3.20;99.90
43665;DHT22;29263;48.172;11.484;2022-12-07T08:50:10;3.20;99.90
43665;DHT22;29263;48.172;11.484;2022-12-07T08:52:37;3.20;99.90
43665;DHT22;29263;48.172;11.484;2022-12-07T08:55:03;3.30;99.90
43665;DHT22;29263;48.172;11.484;2022-12-07T08:57:30;3.30;99.90
43665;DHT22;29263;48.172;11.484;2022-12-07T08:59:58;3.30;99.90
43665;DHT22;29263;48.172;11.484;2022-12-07T09:02:23;3.30;99.90
43665;DHT22;29263;48.172;11.484;2022-12-07T09:04:49;3.40;99.90
43665;DHT22;29263;48.172;11.484;2022-12-07T09:07:15;3.40;99.90
43665;DHT22;29263;48.172;11.484;2022-12-07T09:09:41;3.40;99.90
43665;DHT22;29263;48.172;11.484;2022-12-07T09:12:07;3.40;99.90
43665;DHT22;29263;48.172;11.484;2022-12-07T09:14:33;3.40;99.90
43665;DHT22;29263;48.172;11.484;2022-12-07T09:17:11;3.50;99.90
43665;DHT22;29263;48.172;11.484;2022-12-07T09:19:38;3.50;99.90
43665;DHT22;29263;48.172;11.484;2022-12-07T09:22:04;3.50;99.90
43665;DHT22;29263;48.172;11.484;2022-12-07T09:24:31;3.50;99.90
43665;DHT22;29263;48.172;11.484;2022-12-07T09:26:57;3.60;99.90
43665;DHT22;29263;48.172;11.484;2022-12-07T09:29:23;3.60;99.90
43665;DHT22;29263;48.172;11.484;2022-12-07T09:31:49;3.70;99.90
43665;DHT22;29263;48.172;11.484;2022-12-07T09:34:15;3.70;99.90
43665;DHT22;29263;48.172;11.484;2022-12-07T09:36:40;3.80;99.90
43665;DHT22;29263;48.172;11.484;2022-12-07T09:39:10;3.90;99.90
43665;DHT22;29263;48.172;11.484;2022-12-07T09:41:41;3.90;99.90
43665;DHT22;29263;48.172;11.484;2022-12-07T09:44:14;3.90;99.90
43665;DHT22;29263;48.172;11.484;2022-12-07T09:46:44;4.00;99.90
43665;DHT22;29263;48.172;11.484;2022-12-07T09:49:17;4.00;99.90
43665;DHT22;29263;48.172;11.484;2022-12-07T09:51:44;4.10;99.90
43665;DHT22;29263;48.172;11.484;2022-12-07T09:54:14;4.10;99.90
43665;DHT22;29263;48.172;11.484;2022-12-07T09:56:40;4.10;99.90
43665;DHT22;29263;48.172;11.484;2022-12-07T09:59:05;4.10;99.90
43665;DHT22;29263;48.172;11.484;2022-12-07T10:01:33;4.20;99.90
43665;DHT22;29263;48.172;11.484;2022-12-07T10:04:11;4.20;99.90
43665;DHT22;29263;48.172;11.484;2022-12-07T10:06:39;4.20;99.90
43665;DHT22;29263;48.172;11.484;2022-12-07T10:09:15;4.20;99.90
43665;DHT22;29263;48.172;11.484;2022-12-07T10:14:18;4.30;99.90
43665;DHT22;29263;48.172;11.484;2022-12-07T10:16:43;4.40;99.90
43665;DHT22;29263;48.172;11.484;2022-12-07T10:22:14;4.40;99.90
43665;DHT22;29263;48.172;11.484;2022-12-07T10:24:41;4.40;99.90
43665;DHT22;29263;48.172;11.484;2022-12-07T10:27:31;4.40;99.90
43665;DHT22;29263;48.172;11.484;2022-12-07T10:29:57;4.40;99.90
43665;DHT22;29263;48.172;11.484;2022-12-07T10:32:34;4.40;99.90
43665;DHT22;29263;48.172;11.484;2022-12-07T10:35:29;4.50;99.90
43665;DHT22;29263;48.172;11.484;2022-12-07T10:37:57;4.60;99.90
43665;DHT22;29263;48.172;11.484;2022-12-07T10:40:25;4.50;99.90
43665;DHT22;29263;48.172;11.484;2022-12-07T10:45:35;4.50;99.90
43665;DHT22;29263;48.172;11.484;2022-12-07T10:50:52;4.50;99.90
43665;DHT22;29263;48.172;11.484;2022-12-07T11:07:02;4.80;99.90
43665;DHT22;29263;48.172;11.484;2022-12-07T11:26:01;5.30;99.90
43665;DHT22;29263;48.172;11.484;2022-12-07T11:28:53;5.40;99.90
43665;DHT22;29263;48.172;11.484;2022-12-07T11:34:04;5.30;99.90
43665;DHT22;29263;48.172;11.484;2022-12-07T11:36:49;5.30;99.90
43665;DHT22;29263;48.172;11.484;2022-12-07T11:41:52;5.30;99.90
43665;DHT22;29263;48.172;11.484;2022-12-07T11:50:37;5.40;99.90
43665;DHT22;29263;48.172;11.484;2022-12-07T11:55:56;5.40;99.90
43665;DHT22;29263;48.172;11.484;2022-12-07T12:06:44;5.10;99.90
43665;DHT22;29263;48.172;11.484;2022-12-07T12:18:00;5.10;99.90
43665;DHT22;29263;48.172;11.484;2022-12-07T12:20:51;5.10;99.90
43665;DHT22;29263;48.172;11.484;2022-12-07T12:25:58;5.00;99.90
43665;DHT22;29263;48.172;11.484;2022-12-07T12:28:33;5.00;99.90
43665;DHT22;29263;48.172;11.484;2022-12-07T12:31:06;4.90;99.90
43665;DHT22;29263;48.172;11.484;2022-12-07T12:33:33;4.80;99.90
43665;DHT22;29263;48.172;11.484;2022-12-07T12:44:02;4.80;99.90
43665;DHT22;29263;48.172;11.484;2022-12-07T12:51:57;4.80;99.90
43665;DHT22;29263;48.172;11.484;2022-12-07T12:54:26;4.90;99.90
43665;DHT22;29263;48.172;11.484;2022-12-07T12:59:36;5.00;99.90
43665;DHT22;29263;48.172;11.484;2022-12-07T13:02:20;5.10;99.90
43665;DHT22;29263;48.172;11.484;2022-12-07T13:15:38;5.30;99.90
43665;DHT22;29263;48.172;11.484;2022-12-07T13:21:02;5.30;99.90
43665;DHT22;29263;48.172;11.484;2022-12-07T13:23:40;5.20;99.90
43665;DHT22;29263;48.172;11.484;2022-12-07T13:29:13;5.10;99.90
43665;DHT22;29263;48.172;11.484;2022-12-07T13:34:37;4.90;99.90
43665;DHT22;29263;48.172;11.484;2022-12-07T13:42:33;4.80;99.90
43665;DHT22;29263;48.172;11.484;2022-12-07T13:45:16;4.90;99.90
43665;DHT22;29263;48.172;11.484;2022-12-07T13:47:52;5.00;99.90
43665;DHT22;29263;48.172;11.484;2022-12-07T13:50:25;5.00;99.90
43665;DHT22;29263;48.172;11.484;2022-12-07T13:52:55;5.00;99.90
43665;DHT22;29263;48.172;11.484;2022-12-07T13:55:21;5.00;99.90
43665;DHT22;29263;48.172;11.484;2022-12-07T13:57:50;5.00;99.90
43665;DHT22;29263;48.172;11.484;2022-12-07T14:00:22;5.00;99.90
43665;DHT22;29263;48.172;11.484;2022-12-07T14:03:01;4.90;99.90
43665;DHT22;29263;48.172;11.484;2022-12-07T14:05:29;4.90;99.90
43665;DHT22;29263;48.172;11.484;2022-12-07T14:08:03;5.00;99.90
43665;DHT22;29263;48.172;11.484;2022-12-07T14:10:35;5.10;99.90
43665;DHT22;29263;48.172;11.484;2022-12-07T14:13:03;5.10;99.90
43665;DHT22;29263;48.172;11.484;2022-12-07T14:15:31;5.10;99.90
43665;DHT22;29263;48.172;11.484;2022-12-07T14:17:58;5.10;99.90
43665;DHT22;29263;48.172;11.484;2022-12-07T14:23:03;5.00;99.90
43665;DHT22;29263;48.172;11.484;2022-12-07T14:25:48;5.00;99.90
43665;DHT22;29263;48.172;11.484;2022-12-07T14:28:35;4.90;99.90
43665;DHT22;29263;48.172;11.484;2022-12-07T14:31:02;4.80;99.90
43665;DHT22;29263;48.172;11.484;2022-12-07T14:33:28;4.80;99.90
43665;DHT22;29263;48.172;11.484;2022-12-07T14:35:54;4.70;99.90
43665;DHT22;29263;48.172;11.484;2022-12-07T14:38:24;4.70;99.90
43665;DHT22;29263;48.172;11.484;2022-12-07T14:40:53;4.60;99.90
43665;DHT22;29263;48.172;11.484;2022-12-07T14:43:20;4.60;99.90
43665;DHT22;29263;48.172;11.484;2022-12-07T14:45:45;4.50;99.90
43665;DHT22;29263;48.172;11.484;2022-12-07T14:48:13;4.40;99.90
43665;DHT22;29263;48.172;11.484;2022-12-07T14:50:42;4.40;99.90
43665;DHT22;29263;48.172;11.484;2022-12-07T14:53:16;4.40;99.90
43665;DHT22;29263;48.172;11.484;2022-12-07T14:55:42;4.30;99.90
43665;DHT22;29263;48.172;11.484;2022-12-07T14:58:15;4.20;99.90
43665;DHT22;29263;48.172;11.484;2022-12-07T15:00:41;4.30;99.90
43665;DHT22;29263;48.172;11.484;2022-12-07T15:03:07;4.20;99.90
43665;DHT22;29263;48.172;11.484;2022-12-07T15:05:33;4.20;99.90
43665;DHT22;29263;48.172;11.484;2022-12-07T15:07:59;4.20;99.90
43665;DHT22;29263;48.172;11.484;2022-12-07T15:10:28;4.10;99.90
43665;DHT22;29263;48.172;11.484;2022-12-07T15:13:02;4.10;99.90
43665;DHT22;29263;48.172;11.484;2022-12-07T15:15:48;4.00;99.90
43665;DHT22;29263;48.172;11.484;2022-12-07T15:18:14;3.90;99.90
43665;DHT22;29263;48.172;11.484;2022-12-07T15:20:40;3.80;99.90
43665;DHT22;29263;48.172;11.484;2022-12-07T15:23:06;3.70;99.90
43665;DHT22;29263;48.172;11.484;2022-12-07T15:25:33;3.70;99.90
43665;DHT22;29263;48.172;11.484;2022-12-07T15:27:58;3.70;99.90
43665;DHT22;29263;48.172;11.484;2022-12-07T15:30:24;3.60;99.90
43665;DHT22;29263;48.172;11.484;2022-12-07T15:32:50;3.50;99.90
43665;DHT22;29263;48.172;11.484;2022-12-07T15:35:16;3.50;99.90
43665;DHT22;29263;48.172;11.484;2022-12-07T15:37:42;3.50;99.90
43665;DHT22;29263;48.172;11.484;2022-12-07T15:40:08;3.40;99.90
43665;DHT22;29263;48.172;11.484;2022-12-07T15:42:35;3.40;99.90
43665;DHT22;29263;48.172;11.484;2022-12-07T15:45:01;3.40;99.90
43665;DHT22;29263;48.172;11.484;2022-12-07T15:47:41;3.30;99.90
43665;DHT22;29263;48.172;11.484;2022-12-07T15:50:10;3.40;99.90
43665;DHT22;29263;48.172;11.484;2022-12-07T15:52:36;3.30;99.90
43665;DHT22;29263;48.172;11.484;2022-12-07T15:55:02;3.30;99.90
43665;DHT22;29263;48.172;11.484;2022-12-07T15:57:32;3.30;99.90
43665;DHT22;29263;48.172;11.484;2022-12-07T15:59:58;3.20;99.90
43665;DHT22;29263;48.172;11.484;2022-12-07T16:02:24;3.20;99.90
43665;DHT22;29263;48.172;11.484;2022-12-07T16:04:51;3.10;99.90
43665;DHT22;29263;48.172;11.484;2022-12-07T16:07:17;3.00;99.90
43665;DHT22;29263;48.172;11.484;2022-12-07T16:09:43;3.00;99.90
43665;DHT22;29263;48.172;11.484;2022-12-07T16:12:09;3.00;99.90
43665;DHT22;29263;48.172;11.484;2022-12-07T16:14:36;3.00;99.90
43665;DHT22;29263;48.172;11.484;2022-12-07T16:17:02;3.00;99.90
43665;DHT22;29263;48.172;11.484;2022-12-07T16:19:27;2.90;99.90
43665;DHT22;29263;48.172;11.484;2022-12-07T16:21:53;2.90;99.90
43665;DHT22;29263;48.172;11.484;2022-12-07T16:24:19;2.80;99.90
43665;DHT22;29263;48.172;11.484;2022-12-07T16:26:44;2.80;99.90
43665;DHT22;29263;48.172;11.484;2022-12-07T16:29:14;2.80;99.90
43665;DHT22;29263;48.172;11.484;2022-12-07T16:31:40;2.70;99.90
43665;DHT22;29263;48.172;11.484;2022-12-07T16:34:07;2.70;99.90
43665;DHT22;29263;48.172;11.484;2022-12-07T16:36:33;2.60;99.90
43665;DHT22;29263;48.172;11.484;2022-12-07T16:38:59;2.50;99.90
43665;DHT22;29263;48.172;11.484;2022-12-07T16:41:25;2.50;99.90
43665;DHT22;29263;48.172;11.484;2022-12-07T16:43:51;2.40;99.90
43665;DHT22;29263;48.172;11.484;2022-12-07T16:46:17;2.40;99.90
43665;DHT22;29263;48.172;11.484;2022-12-07T16:48:43;2.40;99.90
43665;DHT22;29263;48.172;11.484;2022-12-07T16:51:11;2.40;99.90
43665;DHT22;29263;48.172;11.484;2022-12-07T16:53:38;2.40;99.90
43665;DHT22;29263;48.172;11.484;2022-12-07T16:56:09;2.40;99.90
43665;DHT22;29263;48.172;11.484;2022-12-07T16:58:34;2.30;99.90
43665;DHT22;29263;48.172;11.484;2022-12-07T17:01:11;2.20;99.90
43665;DHT22;29263;48.172;11.484;2022-12-07T17:03:37;2.30;99.90
43665;DHT22;29263;48.172;11.484;2022-12-07T17:06:03;2.20;99.90
43665;DHT22;29263;48.172;11.484;2022-12-07T17:08:29;2.20;99.90
43665;DHT22;29263;48.172;11.484;2022-12-07T17:10:54;2.00;99.90
43665;DHT22;29263;48.172;11.484;2022-12-07T17:13:20;2.10;99.90
43665;DHT22;29263;48.172;11.484;2022-12-07T17:16:06;2.00;99.90
43665;DHT22;29263;48.172;11.484;2022-12-07T17:18:35;2.00;99.90
43665;DHT22;29263;48.172;11.484;2022-12-07T17:21:05;1.90;99.90
43665;DHT22;29263;48.172;11.484;2022-12-07T17:23:32;1.90;99.90
43665;DHT22;29263;48.172;11.484;2022-12-07T17:26:10;1.90;99.90
43665;DHT22;29263;48.172;11.484;2022-12-07T17:28:36;1.90;99.90
43665;DHT22;29263;48.172;11.484;2022-12-07T17:31:05;1.80;99.90
43665;DHT22;29263;48.172;11.484;2022-12-07T17:33:32;1.80;99.90
43665;DHT22;29263;48.172;11.484;2022-12-07T17:35:59;1.80;99.90
43665;DHT22;29263;48.172;11.484;2022-12-07T17:38:24;1.80;99.90
43665;DHT22;29263;48.172;11.484;2022-12-07T17:40:50;1.80;99.90
43665;DHT22;29263;48.172;11.484;2022-12-07T17:43:15;1.70;99.90
43665;DHT22;29263;48.172;11.484;2022-12-07T17:45:41;1.70;99.90
43665;DHT22;29263;48.172;11.484;2022-12-07T17:48:07;1.70;99.90
43665;DHT22;29263;48.172;11.484;2022-12-07T17:50:32;1.60;99.90
43665;DHT22;29263;48.172;11.484;2022-12-07T17:53:17;1.60;99.90
43665;DHT22;29263;48.172;11.484;2022-12-07T17:55:42;1.50;99.90
43665;DHT22;29263;48.172;11.484;2022-12-07T17:58:08;1.40;99.90
43665;DHT22;29263;48.172;11.484;2022-12-07T18:00:34;1.40;99.90
43665;DHT22;29263;48.172;11.484;2022-12-07T18:03:05;1.40;99.90